Time;durP1;ratioP1;P1;durP2;ratioP2;P2;SDS_P1;SDS_P2;PMS_P1;PMS_P2;Temp;Humidity;BMP_temperature;BMP_pressure;BME280_temperature;BME280_humidity;BME280_pressure;Samples;Min_cycle;Max_cycle;Signal;HPM_P1;HPM_P2
2020/12/01 00:00:20;;;;;;;3.50;2.73;;;6.60;99.90;;;;;;3573719;32;21238;-80
2020/12/01 00:03:10;;;;;;;3.70;3.00;;;6.60;99.90;;;;;;3570241;32;20357;-82
2020/12/01 00:06:16;;;;;;;2.70;2.40;;;6.70;99.90;;;;;;3565149;40;20360;-80
2020/12/01 00:09:03;;;;;;;2.90;2.60;;;6.90;99.90;;;;;;3567405;32;20354;-81
2020/12/01 00:12:05;;;;;;;4.10;2.77;;;6.70;99.90;;;;;;3536942;33;20889;-79
2020/12/01 00:14:56;;;;;;;2.70;2.50;;;6.70;99.90;;;;;;3528251;40;20454;-83
2020/12/01 00:18:02;;;;;;;;;;;;;;;;;;;;;
2020/12/01 00:21:15;;;;;;;3.73;2.83;;;6.80;99.90;;;;;;3534589;40;20453;-80
2020/12/01 00:24:13;;;;;;;4.07;3.60;;;6.80;99.90;;;;;;3524071;40;20361;-78
2020/12/01 00:27:16;;;;;;;5.00;3.77;;;6.80;99.90;;;;;;3526568;40;20385;-81
2020/12/01 00:30:42;;;;;;;;;;;;;;;;;;;;;
2020/12/01 00:33:34;;;;;;;2.40;2.20;;;6.80;99.90;;;;;;3532828;40;20370;-81
2020/12/01 00:36:44;;;;;;;;;;;;;;;;;;;;;
2020/12/01 00:39:29;;;;;;;2.80;2.30;;;6.80;99.90;;;;;;3536467;32;20398;-81
2020/12/01 00:42:13;;;;;;;3.17;2.70;;;6.60;99.90;;;;;;3536032;33;20381;-80
2020/12/01 00:45:12;;;;;;;2.67;2.40;;;6.40;99.90;;;;;;3524598;33;20373;-80
2020/12/01 00:48:41;;;;;;;3.70;3.40;;;6.50;99.90;;;;;;3533963;33;20333;-81
2020/12/01 00:51:44;;;;;;;9.57;6.03;;;6.50;99.90;;;;;;3573139;32;20349;-79
2020/12/01 00:54:37;;;;;;;9.90;8.30;;;6.40;99.90;;;;;;3570090;40;20981;-80
2020/12/01 00:57:21;;;;;;;10.43;7.97;;;6.40;99.90;;;;;;3570590;40;20305;-80
2020/12/01 01:00:12;;;;;;;12.27;7.80;;;6.50;99.90;;;;;;3570499;40;20469;-80
2020/12/01 01:02:50;;;;;;;9.10;6.77;;;6.20;99.90;;;;;;3570525;40;20564;-78
2020/12/01 01:05:50;;;;;;;11.53;7.43;;;6.10;99.90;;;;;;3570179;40;20356;-80
2020/12/01 01:08:49;;;;;;;;;;;;;;;;;;;;;
2020/12/01 01:11:38;;;;;;;11.70;7.33;;;5.90;99.90;;;;;;3581001;32;20336;-79
2020/12/01 01:14:22;;;;;;;14.33;9.83;;;5.90;99.90;;;;;;3578068;32;20337;-78
2020/12/01 01:17:04;;;;;;;12.27;8.30;;;5.70;99.90;;;;;;3570912;40;20302;-80
2020/12/01 01:19:48;;;;;;;9.07;6.30;;;5.70;99.90;;;;;;3570290;40;20381;-79
2020/12/01 01:22:47;;;;;;;11.30;6.27;;;6.10;99.90;;;;;;3572519;32;20345;-79
2020/12/01 01:25:36;;;;;;;12.93;7.60;;;6.10;99.90;;;;;;3569681;39;20455;-81
2020/12/01 01:28:25;;;;;;;10.60;7.23;;;6.00;99.90;;;;;;3572400;32;20302;-81
2020/12/01 01:31:06;;;;;;;10.70;7.57;;;6.10;99.90;;;;;;3572674;32;20389;-82
2020/12/01 01:33:43;;;;;;;10.27;6.90;;;5.80;99.90;;;;;;3571598;32;20361;-80
2020/12/01 01:36:22;;;;;;;11.90;7.17;;;5.80;99.90;;;;;;3570059;40;21400;-81
2020/12/01 01:39:19;;;;;;;8.33;7.07;;;5.90;99.90;;;;;;3571523;32;20390;-80
2020/12/01 01:45:39;;;;;;;8.37;5.97;;;6.10;99.90;;;;;;3571882;32;20357;-80
2020/12/01 01:48:53;;;;;;;8.93;6.53;;;6.20;99.90;;;;;;3569148;40;20349;-79
2020/12/01 01:52:04;;;;;;;8.23;5.80;;;6.20;99.90;;;;;;3564558;40;20376;-80
2020/12/01 01:54:59;;;;;;;8.67;6.60;;;6.30;99.90;;;;;;3572368;32;20356;-80
2020/12/01 01:58:01;;;;;;;8.93;6.30;;;6.10;99.90;;;;;;3570185;40;20388;-80
2020/12/01 02:01:06;;;;;;;7.87;6.40;;;6.10;99.90;;;;;;3568602;40;20387;-79
2020/12/01 02:04:16;;;;;;;8.77;6.63;;;6.10;99.90;;;;;;3574953;32;20366;-80
2020/12/01 02:07:07;;;;;;;9.07;6.47;;;6.30;99.90;;;;;;3570495;40;20345;-82
2020/12/01 02:10:00;;;;;;;9.83;6.57;;;6.40;99.90;;;;;;3569178;32;20321;-81
2020/12/01 02:13:09;;;;;;;5.87;4.80;;;6.10;99.90;;;;;;3569470;33;20373;-81
2020/12/01 02:16:05;;;;;;;5.80;4.90;;;6.50;99.90;;;;;;3571307;32;20333;-79
2020/12/01 02:18:52;;;;;;;5.17;4.00;;;6.50;99.90;;;;;;3569566;40;20375;-81
2020/12/01 02:21:51;;;;;;;4.67;3.47;;;6.70;99.90;;;;;;3574372;33;20344;-80
2020/12/01 02:24:35;;;;;;;3.10;2.80;;;6.60;99.90;;;;;;3569176;40;20399;-82
2020/12/01 02:28:18;;;;;;;3.17;2.80;;;6.90;99.90;;;;;;3573153;32;20371;-80
2020/12/01 02:35:02;;;;;;;4.07;3.20;;;7.00;99.90;;;;;;3568933;33;20429;-80
2020/12/01 02:38:10;;;;;;;9.07;5.80;;;7.10;99.90;;;;;;3541577;32;20431;-81
2020/12/01 02:41:15;;;;;;;6.77;5.80;;;6.80;99.90;;;;;;3551821;33;20417;-78
2020/12/01 02:44:12;;;;;;;7.50;6.70;;;6.60;99.90;;;;;;3545570;32;20417;-79
2020/12/01 02:47:04;;;;;;;;;;;;;;;;;;;;;
2020/12/01 02:50:16;;;;;;;8.00;6.10;;;6.60;99.90;;;;;;3549654;40;20381;-82
2020/12/01 02:53:13;;;;;;;7.67;6.37;;;6.70;99.90;;;;;;3544741;33;20385;-82
2020/12/01 02:56:03;;;;;;;8.00;6.30;;;6.70;99.90;;;;;;3549927;40;20370;-81
2020/12/01 02:59:02;;;;;;;10.57;7.10;;;6.80;99.90;;;;;;3540977;40;20389;-81
2020/12/01 03:02:17;;;;;;;;;;;;;;;;;;;;;
2020/12/01 03:05:09;;;;;;;7.93;5.80;;;6.80;99.90;;;;;;3543369;33;20915;-81
2020/12/01 03:11:15;;;;;;;8.07;6.27;;;6.80;99.90;;;;;;3548434;32;20427;-82
2020/12/01 03:14:06;;;;;;;7.13;6.30;;;6.80;99.90;;;;;;3567116;32;20380;-79
2020/12/01 03:16:52;;;;;;;6.70;5.40;;;6.60;99.90;;;;;;3560335;40;20385;-80
2020/12/01 03:19:54;;;;;;;7.43;5.77;;;6.50;99.90;;;;;;3563323;32;20407;-79
2020/12/01 03:22:59;;;;;;;6.70;5.53;;;6.30;99.90;;;;;;3563010;33;20471;-82
2020/12/01 03:26:29;;;;;;;7.60;6.17;;;6.50;99.90;;;;;;3562682;40;20349;-81
2020/12/01 03:32:32;;;;;;;11.20;6.90;;;6.60;99.90;;;;;;3567321;33;20721;-81
2020/12/01 03:35:16;;;;;;;10.07;7.53;;;6.70;99.90;;;;;;3561975;40;20362;-81
2020/12/01 03:38:12;;;;;;;9.23;6.93;;;6.40;99.90;;;;;;3563886;33;20506;-81
2020/12/01 03:41:25;;;;;;;9.10;6.90;;;6.40;99.90;;;;;;3562080;40;20384;-80
2020/12/01 03:44:29;;;;;;;10.27;7.80;;;6.60;99.90;;;;;;3563221;40;20360;-82
2020/12/01 03:47:27;;;;;;;9.00;7.70;;;6.70;99.90;;;;;;3563551;40;20519;-81
2020/12/01 03:50:42;;;;;;;8.80;7.17;;;7.10;99.90;;;;;;3565787;32;20586;-81
2020/12/01 03:53:39;;;;;;;13.10;8.83;;;7.10;99.90;;;;;;3566827;32;20388;-80
2020/12/01 03:56:46;;;;;;;10.63;7.90;;;6.80;99.90;;;;;;3547652;32;20436;-80
2020/12/01 03:59:55;;;;;;;11.50;7.97;;;6.90;99.90;;;;;;3542018;32;20374;-80
2020/12/01 04:03:12;;;;;;;8.33;6.80;;;6.90;99.90;;;;;;3532297;33;20951;-80
2020/12/01 04:06:54;;;;;;;11.70;8.20;;;7.00;99.90;;;;;;3549838;33;20322;-81
2020/12/01 04:09:57;;;;;;;13.73;8.57;;;7.00;99.90;;;;;;3548969;40;20430;-81
2020/12/01 04:13:07;;;;;;;11.63;8.23;;;7.00;99.90;;;;;;3543305;33;20421;-82
2020/12/01 04:16:22;;;;;;;11.30;7.90;;;7.20;99.90;;;;;;3548129;40;20381;-80
2020/12/01 04:19:32;;;;;;;12.23;8.10;;;7.10;99.90;;;;;;3540869;32;20390;-81
2020/12/01 04:22:34;;;;;;;11.70;8.70;;;6.90;99.90;;;;;;3536696;33;20343;-80
2020/12/01 04:25:54;;;;;;;9.77;7.67;;;6.60;99.90;;;;;;3523088;40;20406;-80
2020/12/01 04:28:45;;;;;;;10.27;8.17;;;6.40;99.90;;;;;;3557110;40;20384;-82
2020/12/01 04:31:41;;;;;;;9.93;7.60;;;6.80;99.90;;;;;;3559117;32;20341;-80
2020/12/01 04:34:38;;;;;;;9.70;7.47;;;6.60;99.90;;;;;;3549051;33;20314;-79
2020/12/01 04:41:02;;;;;;;10.40;7.80;;;6.90;99.90;;;;;;3550137;33;20366;-82
2020/12/01 04:44:34;;;;;;;8.40;7.50;;;6.90;99.90;;;;;;3550755;40;20380;-81
2020/12/01 04:48:34;;;;;;;12.90;8.13;;;7.10;99.90;;;;;;3545034;32;20342;-79
2020/12/01 04:51:54;;;;;;;11.20;7.90;;;7.10;99.90;;;;;;3568179;40;20380;-79
2020/12/01 04:55:09;;;;;;;9.60;7.33;;;6.70;99.90;;;;;;3564154;33;20431;-81
2020/12/01 04:58:36;;;;;;;8.73;6.33;;;6.40;99.90;;;;;;3566739;33;20365;-79
2020/12/01 05:01:50;;;;;;;9.80;8.23;;;6.40;99.90;;;;;;3571132;32;20377;-80
2020/12/01 05:05:49;;;;;;;;;;;;;;;;;;;;;
2020/12/01 05:09:31;;;;;;;7.93;6.60;;;7.20;99.90;;;;;;3570464;40;20373;-79
2020/12/01 05:12:48;;;;;;;9.87;6.90;;;7.00;99.90;;;;;;3552681;40;20345;-80
2020/12/01 05:16:34;;;;;;;16.67;11.27;;;7.00;99.90;;;;;;3541946;33;20347;-80
2020/12/01 05:19:48;;;;;;;12.23;7.43;;;7.10;99.90;;;;;;3546203;33;20373;-82
2020/12/01 05:22:40;;;;;;;10.73;8.40;;;7.30;99.90;;;;;;3524207;33;20366;-80
2020/12/01 05:25:47;;;;;;;10.87;8.67;;;7.30;99.90;;;;;;3547608;40;20514;-80
2020/12/01 05:28:32;;;;;;;8.80;7.50;;;7.30;99.90;;;;;;3541841;33;20346;-81
2020/12/01 05:31:24;;;;;;;13.00;7.80;;;7.30;99.90;;;;;;3540031;40;20425;-80
2020/12/01 05:34:40;;;;;;;10.50;7.73;;;7.20;99.90;;;;;;3528531;33;20447;-79
2020/12/01 05:37:28;;;;;;;8.70;6.67;;;6.90;99.90;;;;;;3540256;40;20346;-80
2020/12/01 05:40:31;;;;;;;;;;;;;;;;;;;;;
2020/12/01 05:47:42;;;;;;;11.67;8.20;;;7.30;99.90;;;;;;3571880;32;20451;-80
2020/12/01 05:50:30;;;;;;;13.00;9.00;;;7.60;99.90;;;;;;3560719;32;20345;-80
2020/12/01 05:54:08;;;;;;;13.27;9.07;;;7.70;99.90;;;;;;3567212;40;20380;-81
2020/12/01 06:01:07;;;;;;;13.13;8.53;;;7.50;99.90;;;;;;3522899;40;20374;-81
2020/12/01 06:04:31;;;;;;;13.40;8.80;;;7.60;99.90;;;;;;3523636;33;21015;-80
2020/12/01 06:07:23;;;;;;;12.03;8.67;;;7.60;99.90;;;;;;3519360;40;20383;-80
2020/12/01 06:10:18;;;;;;;10.73;8.40;;;7.70;99.90;;;;;;3522365;33;20446;-83
2020/12/01 06:13:32;;;;;;;12.00;9.57;;;7.40;99.90;;;;;;3524585;40;20452;-80
2020/12/01 06:17:10;;;;;;;11.63;9.13;;;7.50;99.90;;;;;;3481074;33;20397;-81
2020/12/01 06:20:34;;;;;;;10.30;8.20;;;7.60;99.90;;;;;;3486868;41;20415;-80
2020/12/01 06:24:17;;;;;;;8.50;7.47;;;7.20;99.90;;;;;;3469808;33;20342;-79
2020/12/01 06:27:17;;;;;;;11.17;8.07;;;7.10;99.90;;;;;;3486771;33;20435;-81
2020/12/01 06:30:14;;;;;;;13.73;10.00;;;7.30;99.90;;;;;;3498421;41;20492;-81
2020/12/01 06:33:02;;;;;;;11.80;9.90;;;7.80;99.90;;;;;;3504624;33;20333;-82
2020/12/01 06:36:40;;;;;;;8.90;7.63;;;7.60;99.90;;;;;;3491841;33;20373;-81
2020/12/01 06:39:48;;;;;;;11.67;8.73;;;7.60;99.90;;;;;;3494222;33;20305;-80
2020/12/01 06:43:26;;;;;;;17.10;10.30;;;7.50;99.90;;;;;;3493802;33;20320;-83
2020/12/01 06:47:13;;;;;;;12.87;10.00;;;7.50;99.90;;;;;;3503744;33;20456;-80
2020/12/01 06:50:36;;;;;;;15.20;10.30;;;7.60;99.90;;;;;;3496352;33;20330;-81
2020/12/01 06:53:32;;;;;;;18.60;10.63;;;7.70;99.90;;;;;;3542299;33;20307;-80
2020/12/01 06:56:33;;;;;;;12.87;9.07;;;7.50;99.90;;;;;;3526798;33;20336;-80
2020/12/01 06:59:33;;;;;;;18.50;10.13;;;7.40;99.90;;;;;;3531261;40;20580;-80
2020/12/01 07:02:52;;;;;;;;;;;;;;;;;;;;;
2020/12/01 07:05:51;;;;;;;13.80;8.90;;;7.20;99.90;;;;;;3528655;33;20410;-80
2020/12/01 07:12:20;;;;;;;18.13;11.50;;;7.20;99.90;;;;;;3530663;33;20389;-81
2020/12/01 07:16:01;;;;;;;;;;;;;;;;;;;;;
2020/12/01 07:19:21;;;;;;;14.97;10.33;;;7.20;99.90;;;;;;3496092;33;20370;-82
2020/12/01 07:22:43;;;;;;;15.40;10.67;;;7.10;99.90;;;;;;3525229;33;20354;-82
2020/12/01 07:26:06;;;;;;;14.60;10.17;;;7.00;99.90;;;;;;3534140;33;20317;-81
2020/12/01 07:29:47;;;;;;;16.43;10.70;;;7.10;99.90;;;;;;3504867;33;20443;-80
2020/12/01 07:32:43;;;;;;;16.97;11.43;;;7.00;99.90;;;;;;3516503;33;20384;-80
2020/12/01 07:35:38;;;;;;;16.00;11.00;;;7.30;99.90;;;;;;3508023;40;20447;-80
2020/12/01 07:38:43;;;;;;;17.83;10.83;;;6.90;99.90;;;;;;3544333;32;20502;-80
2020/12/01 07:41:57;;;;;;;16.40;10.70;;;6.60;99.90;;;;;;3542439;40;20350;-80
2020/12/01 07:44:56;;;;;;;18.57;11.17;;;6.40;99.90;;;;;;3534965;40;20878;-80
2020/12/01 07:47:59;;;;;;;20.97;12.63;;;6.80;99.90;;;;;;3546898;33;20397;-79
2020/12/01 07:50:41;;;;;;;18.53;11.77;;;7.20;99.90;;;;;;3543698;32;20405;-81
2020/12/01 07:54:10;;;;;;;21.50;11.97;;;7.50;99.90;;;;;;3544851;32;20437;-79
2020/12/01 07:57:40;;;;;;;21.90;12.37;;;7.30;99.90;;;;;;3493452;33;20444;-81
2020/12/01 08:00:50;;;;;;;19.53;12.60;;;7.10;99.90;;;;;;3493466;33;20376;-80
2020/12/01 08:03:49;;;;;;;13.80;9.83;;;7.10;99.90;;;;;;3493243;33;20392;-80
2020/12/01 08:07:23;;;;;;;17.87;11.30;;;7.20;99.90;;;;;;3500843;33;20448;-82
2020/12/01 08:10:55;;;;;;;13.27;10.10;;;6.80;99.90;;;;;;3476113;33;20439;-79
2020/12/01 08:14:24;;;;;;;17.13;10.37;;;6.90;99.90;;;;;;3496644;41;20379;-79
2020/12/01 08:20:54;;;;;;;16.20;10.83;;;7.70;99.90;;;;;;3495154;33;20467;-82
2020/12/01 08:23:46;;;;;;;15.17;9.17;;;7.60;99.90;;;;;;3496057;33;20351;-80
2020/12/01 08:27:08;;;;;;;12.30;10.07;;;7.40;99.90;;;;;;3493262;41;20359;-81
2020/12/01 08:30:17;;;;;;;14.60;10.23;;;7.50;99.90;;;;;;3500134;41;20368;-80
2020/12/01 08:33:42;;;;;;;16.30;10.63;;;7.80;99.90;;;;;;3509390;33;20338;-81
2020/12/01 08:40:08;;;;;;;17.27;10.70;;;7.50;99.90;;;;;;3529829;40;20857;-80
2020/12/01 08:43:25;;;;;;;16.70;10.73;;;7.60;99.90;;;;;;3535156;33;20343;-79
2020/12/01 08:46:23;;;;;;;14.30;8.50;;;7.20;99.90;;;;;;3521875;40;20320;-80
2020/12/01 08:49:23;;;;;;;13.80;9.43;;;7.40;99.90;;;;;;3522589;40;20387;-82
2020/12/01 08:52:01;;;;;;;16.30;10.43;;;7.80;99.90;;;;;;3524680;33;20378;-83
2020/12/01 08:54:53;;;;;;;15.10;10.60;;;7.80;99.90;;;;;;3531531;33;20422;-80
2020/12/01 09:01:22;;;;;;;16.03;10.17;;;7.50;99.90;;;;;;3520009;33;20350;-81
2020/12/01 09:03:58;;;;;;;15.10;10.03;;;7.60;99.90;;;;;;3530413;33;20781;-80
2020/12/01 09:06:42;;;;;;;15.50;10.57;;;7.50;99.90;;;;;;3532339;33;20383;-80
2020/12/01 09:12:49;;;;;;;13.57;9.93;;;7.80;99.90;;;;;;3526499;32;20365;-81
2020/12/01 09:22:12;;;;;;;18.37;11.50;;;8.00;99.90;;;;;;3504785;33;20405;-81
2020/12/01 09:25:31;;;;;;;21.20;12.40;;;8.10;99.90;;;;;;3511196;33;20745;-80
2020/12/01 09:28:23;;;;;;;14.60;11.90;;;8.00;99.90;;;;;;3527880;33;20473;-81
2020/12/01 09:31:04;;;;;;;16.13;12.00;;;8.00;99.90;;;;;;3537727;32;20382;-82
2020/12/01 09:33:47;;;;;;;;;;;;;;;;;;;;;
2020/12/01 09:37:01;;;;;;;16.63;12.53;;;7.80;99.90;;;;;;3524640;40;20381;-82
2020/12/01 09:39:46;;;;;;;14.77;10.47;;;8.00;99.90;;;;;;3521231;33;20352;-81
2020/12/01 09:42:36;;;;;;;16.03;10.70;;;7.90;99.90;;;;;;3525609;33;20355;-81
2020/12/01 09:45:52;;;;;;;;;;;;;;;;;;;;;
2020/12/01 09:48:54;;;;;;;13.70;10.10;;;8.20;99.90;;;;;;3522552;33;20386;-80
2020/12/01 09:51:47;;;;;;;;;;;;;;;;;;;;;
2020/12/01 10:06:18;;;;;;;17.07;10.80;;;8.60;99.90;;;;;;3520615;33;20347;-81
2020/12/01 10:15:40;;;;;;;15.93;11.43;;;8.60;99.90;;;;;;3525847;33;20387;-82
2020/12/01 10:37:02;;;;;;;19.50;11.10;;;8.60;99.90;;;;;;3521804;40;20441;-81
2020/12/01 10:39:53;;;;;;;12.90;9.87;;;8.80;99.90;;;;;;3528313;32;20367;-81
2020/12/01 10:46:30;;;;;;;17.70;11.70;;;9.50;99.90;;;;;;3514652;33;20360;-80
2020/12/01 10:49:16;;;;;;;17.67;12.40;;;9.60;99.90;;;;;;3510788;40;20340;-80
2020/12/01 10:52:05;;;;;;;17.70;12.00;;;9.40;99.90;;;;;;3521026;40;20379;-79
2020/12/01 10:55:27;;;;;;;12.83;10.87;;;9.30;99.90;;;;;;3523271;33;20371;-81
2020/12/01 10:58:11;;;;;;;17.30;12.17;;;9.40;99.90;;;;;;3520440;40;20434;-80
2020/12/01 11:00:55;;;;;;;18.40;12.90;;;9.50;99.90;;;;;;3508467;33;20938;-82
2020/12/01 11:03:42;;;;;;;14.13;9.30;;;9.80;99.90;;;;;;3521235;40;20411;-82
2020/12/01 11:06:31;;;;;;;11.50;7.87;;;9.50;99.90;;;;;;3529981;40;20386;-81
2020/12/01 11:09:15;;;;;;;14.70;7.27;;;9.00;99.90;;;;;;3522500;33;20351;-80
2020/12/01 11:12:08;;;;;;;13.37;7.23;;;8.70;99.90;;;;;;3532562;32;20382;-80
2020/12/01 11:15:00;;;;;;;12.80;6.27;;;8.60;99.90;;;;;;3523164;33;20434;-82
2020/12/01 11:17:51;;;;;;;9.70;6.50;;;8.50;99.90;;;;;;3525842;33;20366;-79
2020/12/01 11:20:35;;;;;;;7.97;6.17;;;8.60;99.90;;;;;;3277866;33;10000357;-80
2020/12/01 11:23:28;;;;;;;7.67;6.70;;;8.50;99.90;;;;;;3523937;40;20312;-81
2020/12/01 11:26:22;;;;;;;9.63;7.57;;;8.60;99.90;;;;;;3519923;33;20477;-80
2020/12/01 11:29:02;;;;;;;12.87;7.13;;;8.60;99.90;;;;;;3530500;33;20407;-81
2020/12/01 11:32:02;;;;;;;10.93;7.20;;;8.70;99.90;;;;;;3528309;33;20409;-82
2020/12/01 11:34:43;;;;;;;9.60;7.30;;;9.10;99.90;;;;;;3529566;32;20339;-80
2020/12/01 11:37:40;;;;;;;21.33;12.33;;;9.30;99.90;;;;;;3515629;33;20379;-82
2020/12/01 11:40:23;;;;;;;8.60;6.37;;;9.40;99.90;;;;;;3526566;33;20648;-83
2020/12/01 11:43:12;;;;;;;6.60;5.07;;;9.40;99.90;;;;;;3520190;40;20950;-82
2020/12/01 11:45:53;;;;;;;5.20;4.40;;;9.40;99.90;;;;;;3518999;40;20359;-83
2020/12/01 11:48:28;;;;;;;6.23;4.63;;;9.10;99.90;;;;;;3518078;33;20379;-82
2020/12/01 11:51:26;;;;;;;7.57;4.93;;;9.00;99.90;;;;;;3525835;40;20434;-81
2020/12/01 11:54:09;;;;;;;7.60;5.20;;;8.90;99.90;;;;;;3526946;40;20358;-82
2020/12/01 11:56:52;;;;;;;6.80;5.50;;;8.80;99.90;;;;;;3517392;33;20359;-81
2020/12/01 11:59:52;;;;;;;5.20;4.70;;;8.90;99.90;;;;;;3519751;33;20347;-80
2020/12/01 12:02:31;;;;;;;6.90;5.50;;;8.90;99.90;;;;;;3529218;32;20355;-81
2020/12/01 12:05:20;;;;;;;5.70;5.10;;;9.00;99.90;;;;;;3526390;40;20393;-81
2020/12/01 12:09:00;;;;;;;8.50;5.97;;;8.90;99.90;;;;;;3523713;33;20366;-81
2020/12/01 12:11:57;;;;;;;5.30;4.70;;;9.00;99.90;;;;;;3509186;40;20465;-82
2020/12/01 12:14:48;;;;;;;5.30;4.73;;;9.00;99.90;;;;;;3523282;33;20370;-81
2020/12/01 12:17:44;;;;;;;;;;;;;;;;;;;;;
2020/12/01 12:20:35;;;;;;;6.60;5.47;;;8.90;99.90;;;;;;3523447;33;20439;-79
2020/12/01 12:30:07;;;;;;;6.00;5.47;;;8.80;99.90;;;;;;3613972;27;20470;-80
2020/12/01 12:32:33;;;;;;;8.83;5.90;;;8.90;99.90;;;;;;3562607;40;20396;-81
2020/12/01 12:35:00;;;;;;;7.87;5.93;;;9.50;99.90;;;;;;3560661;32;20405;-81
2020/12/01 12:37:28;;;;;;;7.67;5.80;;;10.20;99.90;;;;;;3560803;40;20349;-80
2020/12/01 12:39:57;;;;;;;7.80;5.97;;;10.20;99.90;;;;;;3561767;32;20381;-81
2020/12/01 12:42:24;;;;;;;7.50;6.00;;;10.00;99.90;;;;;;3561029;32;20393;-81
2020/12/01 12:44:51;;;;;;;12.00;8.30;;;10.10;99.90;;;;;;3565483;32;20649;-81
2020/12/01 12:47:18;;;;;;;14.20;9.57;;;10.30;99.90;;;;;;3560800;32;20466;-81
2020/12/01 12:49:45;;;;;;;16.60;11.43;;;10.30;99.90;;;;;;3559177;40;20337;-81
2020/12/01 12:52:12;;;;;;;18.80;13.00;;;10.20;99.90;;;;;;3565650;32;20802;-81
2020/12/01 12:54:38;;;;;;;19.07;11.80;;;10.30;99.90;;;;;;3564093;32;20377;-80
2020/12/01 12:57:05;;;;;;;15.37;11.53;;;10.10;99.90;;;;;;3559489;40;20388;-80
2020/12/01 12:59:32;;;;;;;17.57;12.00;;;10.00;99.90;;;;;;3561667;32;20372;-80
2020/12/01 13:01:59;;;;;;;15.70;10.50;;;9.80;99.90;;;;;;3559884;40;20385;-81
2020/12/01 13:04:26;;;;;;;19.33;10.87;;;9.70;99.90;;;;;;3561618;32;20357;-81
2020/12/01 13:06:53;;;;;;;17.20;12.77;;;9.70;99.90;;;;;;3563585;32;20900;-80
2020/12/01 13:09:23;;;;;;;21.90;12.87;;;9.60;99.90;;;;;;3560748;33;20937;-80
2020/12/01 13:11:51;;;;;;;20.50;14.20;;;9.50;99.90;;;;;;3563326;32;20369;-81
2020/12/01 13:14:18;;;;;;;21.60;13.40;;;9.40;99.90;;;;;;3564161;32;20451;-81
2020/12/01 13:16:48;;;;;;;20.67;13.40;;;9.30;99.90;;;;;;3559586;33;20401;-80
2020/12/01 13:19:16;;;;;;;18.50;12.70;;;9.20;99.90;;;;;;3559720;40;20369;-79
2020/12/01 13:21:44;;;;;;;21.27;14.00;;;9.20;99.90;;;;;;3562138;32;20360;-79
2020/12/01 13:24:11;;;;;;;20.77;12.70;;;9.30;99.90;;;;;;3559747;33;20362;-81
2020/12/01 13:26:37;;;;;;;22.63;13.33;;;9.00;99.90;;;;;;3562973;32;20352;-80
2020/12/01 13:29:07;;;;;;;22.90;13.43;;;9.10;99.90;;;;;;3563358;32;20377;-78
2020/12/01 13:31:58;;;;;;;21.27;13.70;;;9.20;99.90;;;;;;3562611;40;20373;-81
2020/12/01 13:34:43;;;;;;;21.87;12.77;;;9.20;99.90;;;;;;3566956;32;20373;-80
2020/12/01 13:37:33;;;;;;;21.00;13.23;;;9.10;99.90;;;;;;3568349;32;21331;-80
2020/12/01 13:40:16;;;;;;;15.47;11.87;;;9.00;99.90;;;;;;3562227;40;20341;-80
2020/12/01 13:42:49;;;;;;;18.47;12.30;;;8.60;99.90;;;;;;3560200;40;20369;-78
2020/12/01 13:45:19;;;;;;;18.50;11.90;;;9.00;99.90;;;;;;3560346;40;20381;-81
2020/12/01 13:48:39;;;;;;;22.00;12.93;;;9.10;99.90;;;;;;3566052;32;20380;-80
2020/12/01 13:51:45;;;;;;;17.23;12.63;;;9.10;99.90;;;;;;3563095;40;20518;-80
2020/12/01 13:54:34;;;;;;;18.93;11.50;;;8.80;99.90;;;;;;3566021;40;20369;-81
2020/12/01 13:57:28;;;;;;;16.60;11.27;;;8.90;99.90;;;;;;3564487;32;20525;-80
2020/12/01 14:00:45;;;;;;;14.20;11.30;;;8.60;99.90;;;;;;3567406;33;20417;-80
2020/12/01 14:03:38;;;;;;;23.40;14.40;;;8.50;99.90;;;;;;3535163;32;20370;-80
2020/12/01 14:06:38;;;;;;;16.60;11.50;;;8.30;99.90;;;;;;3560611;33;21105;-81
2020/12/01 14:09:20;;;;;;;16.00;12.03;;;8.50;99.90;;;;;;3567968;32;20454;-80
2020/12/01 14:12:20;;;;;;;16.43;11.67;;;8.60;99.90;;;;;;3569793;32;20452;-80
2020/12/01 14:14:54;;;;;;;17.13;11.77;;;8.70;99.90;;;;;;3560026;40;20376;-80
2020/12/01 14:18:01;;;;;;;15.47;11.20;;;9.00;99.90;;;;;;3561968;32;20389;-79
2020/12/01 14:24:01;;;;;;;14.60;10.90;;;9.00;99.90;;;;;;3531977;40;20393;-80
2020/12/01 14:26:52;;;;;;;14.97;11.60;;;9.10;99.90;;;;;;3563164;33;20353;-79
2020/12/01 14:29:49;;;;;;;17.43;11.83;;;9.10;99.90;;;;;;3563782;32;20708;-82
2020/12/01 14:32:40;;;;;;;17.87;12.10;;;9.10;99.90;;;;;;3565369;32;20764;-80
2020/12/01 14:35:34;;;;;;;16.60;12.07;;;9.10;99.90;;;;;;3564107;32;20373;-79
2020/12/01 14:38:52;;;;;;;17.70;12.10;;;9.20;99.90;;;;;;3564062;32;20648;-80
2020/12/01 14:41:41;;;;;;;;;;;;;;;;;;;;;
2020/12/01 14:44:21;;;;;;;18.10;12.23;;;8.60;99.90;;;;;;3561653;40;20375;-79
2020/12/01 14:47:35;;;;;;;12.73;9.63;;;8.40;99.90;;;;;;3566420;32;20349;-79
2020/12/01 14:51:04;;;;;;;19.63;11.90;;;8.40;99.90;;;;;;3568907;32;20380;-82
2020/12/01 14:54:22;;;;;;;16.03;11.33;;;8.60;99.90;;;;;;3544927;33;20369;-79
2020/12/01 15:06:06;;;;;;;12.03;9.87;;;8.30;99.90;;;;;;3554447;32;20393;-79
2020/12/01 15:09:29;;;;;;;20.60;10.90;;;8.70;99.90;;;;;;3535240;33;20345;-80
2020/12/01 15:13:02;;;;;;;15.27;11.50;;;8.90;99.90;;;;;;3535260;33;20488;-80
2020/12/01 15:15:59;;;;;;;15.03;10.27;;;8.90;99.90;;;;;;3544478;40;20380;-81
2020/12/01 15:18:39;;;;;;;12.43;9.40;;;9.10;99.90;;;;;;3544405;33;20389;-80
2020/12/01 15:21:53;;;;;;;15.20;11.47;;;9.10;99.90;;;;;;3547245;32;20357;-81
2020/12/01 15:24:46;;;;;;;13.27;10.40;;;9.00;99.90;;;;;;3545400;40;20416;-82
2020/12/01 15:27:39;;;;;;;14.27;10.87;;;8.80;99.90;;;;;;3536983;33;20389;-82
2020/12/01 15:31:06;;;;;;;11.77;10.30;;;8.70;99.90;;;;;;3541359;33;20354;-81
2020/12/01 15:33:49;;;;;;;12.33;9.83;;;8.50;99.90;;;;;;3544210;40;20408;-80
2020/12/01 15:36:49;;;;;;;15.27;10.33;;;8.50;99.90;;;;;;3505929;40;20383;-81
2020/12/01 15:39:49;;;;;;;19.00;10.50;;;8.60;99.90;;;;;;3504980;33;20457;-80
2020/12/01 15:42:25;;;;;;;14.40;10.73;;;8.40;99.90;;;;;;3514595;33;20344;-81
2020/12/01 15:45:11;;;;;;;14.87;11.20;;;8.70;99.90;;;;;;3512838;33;20594;-80
2020/12/01 15:48:17;;;;;;;15.93;11.27;;;8.70;99.90;;;;;;3506140;33;20457;-81
2020/12/01 15:51:16;;;;;;;13.93;10.53;;;8.60;99.90;;;;;;3508670;33;20477;-81
2020/12/01 15:54:23;;;;;;;14.07;10.33;;;8.20;99.90;;;;;;3505172;33;20407;-80
2020/12/01 15:57:32;;;;;;;12.10;9.20;;;8.00;99.90;;;;;;3509394;40;20375;-79
2020/12/01 16:00:34;;;;;;;12.00;10.27;;;8.30;99.90;;;;;;3510692;33;20374;-79
2020/12/01 16:03:11;;;;;;;13.00;9.70;;;8.50;99.90;;;;;;3263860;33;9999729;-79
2020/12/01 16:05:55;;;;;;;13.17;9.47;;;8.70;99.90;;;;;;3512938;33;20267;-79
2020/12/01 16:08:38;;;;;;;12.60;9.37;;;8.60;99.90;;;;;;3520690;33;20383;-79
2020/12/01 16:11:18;;;;;;;13.90;10.23;;;8.70;99.90;;;;;;3512967;40;20411;-77
2020/12/01 16:14:23;;;;;;;14.47;9.87;;;8.70;99.90;;;;;;3527102;40;20467;-80
2020/12/01 16:17:12;;;;;;;12.03;9.43;;;8.60;99.90;;;;;;3546068;32;20857;-79
2020/12/01 16:19:55;;;;;;;14.23;10.53;;;8.80;99.90;;;;;;3536013;32;20380;-80
2020/12/01 16:22:35;;;;;;;14.60;10.47;;;8.50;99.90;;;;;;3534167;32;20377;-79
2020/12/01 16:25:09;;;;;;;14.03;11.27;;;8.60;99.90;;;;;;3533884;40;20387;-79
2020/12/01 16:27:51;;;;;;;16.60;11.40;;;9.00;99.90;;;;;;3535967;33;20386;-80
2020/12/01 16:30:37;;;;;;;16.50;10.50;;;8.70;99.90;;;;;;3531806;33;20391;-80
2020/12/01 16:33:19;;;;;;;16.93;12.30;;;8.50;99.90;;;;;;3533409;33;20482;-79
2020/12/01 16:36:10;;;;;;;14.50;10.40;;;8.70;99.90;;;;;;3526472;33;20362;-79
2020/12/01 16:38:51;;;;;;;12.13;9.53;;;9.00;99.90;;;;;;3540680;32;20370;-79
2020/12/01 16:41:25;;;;;;;18.53;11.97;;;8.80;99.90;;;;;;3532344;33;20354;-79
2020/12/01 16:44:15;;;;;;;13.27;10.60;;;8.70;99.90;;;;;;3544224;33;21979;-78
2020/12/01 16:47:16;;;;;;;15.30;11.00;;;8.60;99.90;;;;;;3540007;33;20986;-79
2020/12/01 16:50:48;;;;;;;14.73;9.70;;;8.60;99.90;;;;;;3533970;33;20444;-80
2020/12/01 16:54:09;;;;;;;13.70;9.50;;;8.90;99.90;;;;;;3508032;33;20362;-79
2020/12/01 16:57:21;;;;;;;14.93;11.20;;;8.60;99.90;;;;;;3535757;33;20389;-80
2020/12/01 17:00:32;;;;;;;16.50;11.30;;;8.70;99.90;;;;;;3535855;33;20376;-79
2020/12/01 17:03:29;;;;;;;;;;;;;;;;;;;;;
2020/12/01 17:06:32;;;;;;;14.30;10.17;;;8.70;99.90;;;;;;3542198;40;20386;-80
2020/12/01 17:09:28;;;;;;;16.40;10.60;;;8.60;99.90;;;;;;3497097;33;21097;-79
2020/12/01 17:12:22;;;;;;;16.33;11.10;;;8.40;99.90;;;;;;3495230;33;20356;-80
2020/12/01 17:19:19;;;;;;;15.13;10.20;;;8.40;99.90;;;;;;3498856;33;20375;-78
2020/12/01 17:22:10;;;;;;;15.37;11.23;;;8.30;99.90;;;;;;3485242;33;20454;-77
2020/12/01 17:24:41;;;;;;;14.43;9.70;;;8.20;99.90;;;;;;3489838;41;20490;-78
2020/12/01 17:27:30;;;;;;;13.50;10.47;;;8.10;99.90;;;;;;3490206;33;20384;-79
2020/12/01 17:30:30;;;;;;;12.33;9.17;;;8.00;99.90;;;;;;3498121;40;20441;-78
2020/12/01 17:33:46;;;;;;;13.33;10.30;;;8.00;99.90;;;;;;3485442;40;20379;-77
2020/12/01 17:36:45;;;;;;;11.23;8.90;;;8.10;99.90;;;;;;3496707;33;20452;-80